Time;durP1;ratioP1;P1;durP2;ratioP2;P2;SDS_P1;SDS_P2;PMS_P1;PMS_P2;Temp;Humidity;BMP_temperature;BMP_pressure;BME280_temperature;BME280_humidity;BME280_pressure;Samples;Min_cycle;Max_cycle;Signal;HPM_P1;HPM_P2
2022/07/01 00:01:58;;;;;;;5.25;1.20;;;;;;;;;;5056599;28;20470;-86
2022/07/01 00:04:27;;;;;;;5.22;1.27;;;;;;;;;;5062478;28;20048;-86
2022/07/01 00:06:54;;;;;;;5.47;1.23;;;;;;;;;;5071932;28;20041;-86
2022/07/01 00:09:20;;;;;;;5.45;1.15;;;;;;;;;;5041287;28;20080;-85
2022/07/01 00:11:46;;;;;;;6.38;1.25;;;;;;;;;;5073152;28;20045;-87
2022/07/01 00:14:12;;;;;;;5.63;1.35;;;;;;;;;;5058335;28;20036;-86
2022/07/01 00:16:38;;;;;;;5.90;1.42;;;;;;;;;;5033728;28;20045;-87
2022/07/01 00:19:05;;;;;;;4.63;1.30;;;;;;;;;;5057040;28;20483;-86
2022/07/01 00:21:31;;;;;;;4.38;1.20;;;;;;;;;;5061027;28;20074;-86
2022/07/01 00:23:57;;;;;;;5.45;1.20;;;;;;;;;;5058068;28;20052;-85
2022/07/01 00:26:23;;;;;;;4.60;1.00;;;;;;;;;;5060856;28;20506;-86
2022/07/01 00:28:49;;;;;;;5.95;1.27;;;;;;;;;;5057621;28;20048;-84
2022/07/01 00:31:15;;;;;;;4.65;1.08;;;;;;;;;;5065498;28;20491;-86
2022/07/01 00:33:42;;;;;;;5.05;1.20;;;;;;;;;;5048814;28;20102;-86
2022/07/01 00:36:08;;;;;;;6.20;1.25;;;;;;;;;;5059224;28;20131;-85
2022/07/01 00:38:34;;;;;;;5.18;1.08;;;;;;;;;;5059414;28;20053;-85
2022/07/01 00:41:00;;;;;;;7.00;1.33;;;;;;;;;;5056502;28;20072;-85
2022/07/01 00:43:26;;;;;;;6.28;1.50;;;;;;;;;;5058840;28;20047;-86
2022/07/01 00:45:53;;;;;;;6.55;1.10;;;;;;;;;;5059086;28;20124;-85
2022/07/01 00:48:20;;;;;;;6.05;1.20;;;;;;;;;;5060592;28;20040;-86
2022/07/01 00:50:46;;;;;;;6.45;1.73;;;;;;;;;;5058225;28;20052;-85
2022/07/01 00:53:13;;;;;;;5.90;1.30;;;;;;;;;;5058102;28;20491;-86
2022/07/01 00:55:39;;;;;;;5.97;1.55;;;;;;;;;;5054797;28;20487;-86
2022/07/01 00:58:05;;;;;;;4.93;1.20;;;;;;;;;;5054639;28;20107;-86
2022/07/01 01:00:31;;;;;;;6.05;1.60;;;;;;;;;;5056566;28;20041;-85
2022/07/01 01:02:57;;;;;;;5.03;1.48;;;;;;;;;;5055761;28;20045;-86
2022/07/01 01:05:25;;;;;;;5.13;1.40;;;;;;;;;;5054716;28;20053;-87
2022/07/01 01:07:51;;;;;;;5.60;1.73;;;;;;;;;;5053356;28;20435;-87
2022/07/01 01:10:18;;;;;;;7.20;1.50;;;;;;;;;;5034859;28;20045;-87
2022/07/01 01:12:44;;;;;;;4.82;1.48;;;;;;;;;;5056810;28;20044;-88
2022/07/01 01:15:10;;;;;;;6.88;1.67;;;;;;;;;;5063785;28;20041;-87
2022/07/01 01:17:39;;;;;;;3.33;1.13;;;;;;;;;;5058893;28;20053;-87
2022/07/01 01:20:06;;;;;;;4.85;1.13;;;;;;;;;;5057726;28;20049;-88
2022/07/01 01:22:32;;;;;;;6.50;1.20;;;;;;;;;;5053584;28;20044;-87
2022/07/01 01:24:58;;;;;;;3.63;1.10;;;;;;;;;;5056498;28;20076;-87
2022/07/01 01:27:24;;;;;;;5.93;1.25;;;;;;;;;;5033418;28;20045;-86
2022/07/01 01:29:50;;;;;;;3.92;1.08;;;;;;;;;;5055243;28;20487;-86
2022/07/01 01:32:16;;;;;;;5.00;1.23;;;;;;;;;;5036933;28;20398;-86
2022/07/01 01:34:42;;;;;;;4.68;1.30;;;;;;;;;;5057213;28;20408;-86
2022/07/01 01:37:09;;;;;;;3.38;0.93;;;;;;;;;;5054741;28;20098;-86
2022/07/01 01:39:38;;;;;;;5.22;1.15;;;;;;;;;;5036132;28;20041;-87
2022/07/01 01:42:07;;;;;;;2.92;0.80;;;;;;;;;;5053410;28;20072;-87
2022/07/01 01:44:33;;;;;;;4.80;0.93;;;;;;;;;;5022203;28;20045;-87
2022/07/01 01:46:59;;;;;;;3.70;1.00;;;;;;;;;;5038408;28;20056;-87
2022/07/01 01:49:25;;;;;;;4.65;0.80;;;;;;;;;;5043644;28;20060;-88
2022/07/01 01:51:51;;;;;;;4.78;1.00;;;;;;;;;;5049639;28;20044;-87
2022/07/01 01:54:17;;;;;;;4.75;1.10;;;;;;;;;;5039557;28;20044;-88
2022/07/01 01:56:43;;;;;;;4.93;1.02;;;;;;;;;;5029294;28;20052;-87
2022/07/01 01:59:09;;;;;;;4.60;1.10;;;;;;;;;;5040806;28;20052;-88
2022/07/01 02:01:35;;;;;;;4.28;1.17;;;;;;;;;;5061693;28;20044;-88
2022/07/01 02:04:01;;;;;;;5.07;1.00;;;;;;;;;;5045947;28;20112;-88
2022/07/01 02:06:28;;;;;;;4.95;1.20;;;;;;;;;;5072156;28;20109;-89
2022/07/01 02:08:54;;;;;;;4.55;1.02;;;;;;;;;;5065059;28;20059;-88
2022/07/01 02:11:20;;;;;;;3.90;1.30;;;;;;;;;;5045628;28;20056;-88
2022/07/01 02:13:46;;;;;;;3.75;0.90;;;;;;;;;;5055481;28;20045;-88
2022/07/01 02:16:12;;;;;;;4.47;1.00;;;;;;;;;;5031352;28;20037;-89
2022/07/01 02:18:38;;;;;;;4.90;0.98;;;;;;;;;;5050775;28;20491;-89
2022/07/01 02:21:04;;;;;;;3.08;0.90;;;;;;;;;;5069507;28;20037;-89
2022/07/01 02:23:30;;;;;;;4.25;1.27;;;;;;;;;;5064072;28;20049;-89
2022/07/01 02:25:57;;;;;;;3.90;0.90;;;;;;;;;;5051667;28;20037;-89
2022/07/01 02:28:23;;;;;;;4.18;0.93;;;;;;;;;;5074450;28;20089;-88
2022/07/01 02:30:49;;;;;;;3.95;1.00;;;;;;;;;;5056392;28;20078;-87
2022/07/01 02:33:15;;;;;;;4.05;1.00;;;;;;;;;;5075565;28;20040;-88
2022/07/01 02:35:41;;;;;;;5.13;0.88;;;;;;;;;;5060780;28;20033;-87
2022/07/01 02:38:08;;;;;;;3.05;0.90;;;;;;;;;;5070653;28;20044;-88
2022/07/01 02:40:37;;;;;;;4.32;1.33;;;;;;;;;;5068539;28;20041;-88
2022/07/01 02:43:04;;;;;;;4.45;1.10;;;;;;;;;;5049732;28;20124;-89
2022/07/01 02:45:30;;;;;;;2.97;0.95;;;;;;;;;;5075764;28;20073;-88
2022/07/01 02:47:56;;;;;;;3.72;1.30;;;;;;;;;;5047457;28;20064;-86
2022/07/01 02:50:22;;;;;;;4.05;1.20;;;;;;;;;;5075937;28;20491;-88
2022/07/01 02:52:48;;;;;;;5.15;1.25;;;;;;;;;;5067440;28;20483;-88
2022/07/01 02:55:15;;;;;;;6.75;1.50;;;;;;;;;;5044061;28;20049;-87
2022/07/01 02:57:41;;;;;;;4.30;1.70;;;;;;;;;;5061102;28;20112;-88
2022/07/01 03:00:08;;;;;;;4.47;1.60;;;;;;;;;;5056152;28;20045;-87
2022/07/01 03:02:34;;;;;;;4.05;1.98;;;;;;;;;;5064539;28;20048;-88
2022/07/01 03:05:01;;;;;;;6.15;2.03;;;;;;;;;;5059199;28;20049;-88
2022/07/01 03:07:27;;;;;;;4.63;1.80;;;;;;;;;;5017666;28;20045;-88
2022/07/01 03:09:53;;;;;;;5.20;2.00;;;;;;;;;;5061179;28;20103;-87
2022/07/01 03:12:25;;;;;;;6.88;1.63;;;;;;;;;;5071891;28;20056;-89
2022/07/01 03:14:56;;;;;;;4.95;1.90;;;;;;;;;;5055329;28;20046;-88
2022/07/01 03:17:22;;;;;;;5.90;2.03;;;;;;;;;;5077072;28;20064;-88
2022/07/01 03:19:48;;;;;;;5.10;2.20;;;;;;;;;;5085466;28;20051;-86
2022/07/01 03:22:14;;;;;;;5.50;2.00;;;;;;;;;;5067605;28;20041;-87
2022/07/01 03:24:40;;;;;;;7.05;2.30;;;;;;;;;;5077126;28;20050;-88
2022/07/01 03:27:07;;;;;;;4.88;2.17;;;;;;;;;;5060427;28;20055;-87
2022/07/01 03:29:33;;;;;;;4.78;2.47;;;;;;;;;;5056594;28;20116;-88
2022/07/01 03:31:59;;;;;;;5.72;2.78;;;;;;;;;;5074674;28;20044;-88
2022/07/01 03:34:25;;;;;;;5.57;3.03;;;;;;;;;;5079465;28;20060;-87
2022/07/01 03:36:51;;;;;;;5.75;3.33;;;;;;;;;;5046158;28;20045;-88
2022/07/01 03:39:17;;;;;;;5.93;4.25;;;;;;;;;;5078346;28;20041;-88
2022/07/01 03:41:44;;;;;;;9.27;4.50;;;;;;;;;;5078047;28;20027;-89
2022/07/01 03:44:10;;;;;;;7.45;5.25;;;;;;;;;;5080580;28;20042;-89
2022/07/01 03:46:37;;;;;;;9.05;7.00;;;;;;;;;;5078291;28;20045;-87
2022/07/01 03:49:04;;;;;;;12.98;9.40;;;;;;;;;;5075944;28;20045;-87
2022/07/01 03:51:30;;;;;;;14.10;10.32;;;;;;;;;;5067189;28;20073;-89
2022/07/01 03:56:41;;;;;;;14.73;11.88;;;;;;;;;;5066905;28;20041;-89
2022/07/01 03:59:08;;;;;;;15.80;13.55;;;;;;;;;;5077431;28;20563;-88
2022/07/01 04:01:34;;;;;;;18.10;13.50;;;;;;;;;;5071350;28;20053;-87
2022/07/01 04:04:00;;;;;;;17.15;13.98;;;;;;;;;;5065198;28;20124;-89
2022/07/01 04:06:26;;;;;;;16.08;12.73;;;;;;;;;;5072832;28;20482;-90
2022/07/01 04:08:52;;;;;;;15.48;12.50;;;;;;;;;;5072042;28;20049;-88
2022/07/01 04:11:18;;;;;;;16.08;12.60;;;;;;;;;;5079982;28;20052;-89
2022/07/01 04:13:49;;;;;;;17.10;12.93;;;;;;;;;;5079206;28;20024;-90
2022/07/01 04:16:16;;;;;;;14.88;12.18;;;;;;;;;;5070802;28;20112;-88
2022/07/01 04:18:42;;;;;;;14.52;12.07;;;;;;;;;;5070544;28;20033;-88
2022/07/01 04:23:53;;;;;;;14.80;11.35;;;;;;;;;;5063747;28;20048;-89
2022/07/01 04:26:19;;;;;;;14.85;13.18;;;;;;;;;;5066222;28;20052;-90
2022/07/01 04:28:45;;;;;;;14.52;12.65;;;;;;;;;;5068622;28;20080;-90
2022/07/01 04:31:11;;;;;;;16.67;12.73;;;;;;;;;;5069233;28;20045;-90
2022/07/01 04:33:37;;;;;;;15.07;12.32;;;;;;;;;;5072537;28;20045;-90
2022/07/01 04:36:06;;;;;;;17.40;12.93;;;;;;;;;;5064888;28;20041;-90
2022/07/01 04:38:31;;;;;;;17.15;13.63;;;;;;;;;;5070437;28;20041;-89
2022/07/01 04:43:42;;;;;;;17.90;15.23;;;;;;;;;;5056678;28;20053;-90
2022/07/01 04:46:08;;;;;;;21.33;16.55;;;;;;;;;;5072909;28;20044;-89
2022/07/01 04:48:34;;;;;;;19.42;16.13;;;;;;;;;;5071501;28;20411;-88
2022/07/01 04:51:00;;;;;;;21.63;16.90;;;;;;;;;;5092683;28;20025;-90
2022/07/01 04:53:26;;;;;;;19.75;16.08;;;;;;;;;;5041372;28;20052;-90
2022/07/01 04:55:52;;;;;;;21.88;17.17;;;;;;;;;;5071587;28;20040;-90
2022/07/01 04:58:18;;;;;;;21.92;18.73;;;;;;;;;;5071325;28;20041;-89
2022/07/01 05:00:44;;;;;;;19.75;17.63;;;;;;;;;;5086757;28;20093;-89
2022/07/01 05:03:10;;;;;;;21.92;19.33;;;;;;;;;;5062811;28;20045;-89
2022/07/01 05:05:36;;;;;;;24.55;20.55;;;;;;;;;;5066937;28;20045;-90
2022/07/01 05:08:03;;;;;;;23.52;20.70;;;;;;;;;;5061845;28;20064;-89
2022/07/01 05:10:29;;;;;;;22.58;20.23;;;;;;;;;;5061550;28;20037;-89
2022/07/01 05:12:55;;;;;;;25.08;22.20;;;;;;;;;;5069429;28;20068;-89
2022/07/01 05:15:21;;;;;;;26.05;21.27;;;;;;;;;;5066447;28;20045;-90
2022/07/01 05:23:20;;;;;;;24.27;21.77;;;;;;;;;;5062685;28;20051;-90
2022/07/01 05:25:46;;;;;;;23.73;21.20;;;;;;;;;;5022152;28;20117;-88
2022/07/01 05:28:12;;;;;;;28.10;24.08;;;;;;;;;;5042623;28;20094;-89
2022/07/01 05:30:38;;;;;;;24.40;20.13;;;;;;;;;;5069370;28;20045;-88
2022/07/01 05:33:05;;;;;;;25.40;22.80;;;;;;;;;;5054353;28;20072;-88
2022/07/01 05:35:31;;;;;;;26.67;23.77;;;;;;;;;;5054506;28;20032;-87
2022/07/01 05:37:57;;;;;;;24.08;21.38;;;;;;;;;;5070667;28;20055;-88
2022/07/01 05:40:23;;;;;;;25.05;22.25;;;;;;;;;;5064523;28;20036;-87
2022/07/01 05:42:49;;;;;;;24.23;21.58;;;;;;;;;;5064676;28;20401;-88
2022/07/01 05:45:15;;;;;;;24.30;21.80;;;;;;;;;;5060330;28;20052;-88
2022/07/01 05:47:43;;;;;;;24.58;20.83;;;;;;;;;;5061164;28;20076;-88
2022/07/01 05:50:09;;;;;;;25.20;22.05;;;;;;;;;;5050617;28;20049;-88
2022/07/01 05:52:35;;;;;;;25.60;22.90;;;;;;;;;;5081646;28;20045;-88
2022/07/01 05:55:01;;;;;;;27.85;23.67;;;;;;;;;;5078774;28;20028;-87
2022/07/01 05:57:30;;;;;;;26.75;23.73;;;;;;;;;;5084258;28;20039;-87
2022/07/01 05:59:56;;;;;;;25.45;22.85;;;;;;;;;;5083480;28;20044;-88
2022/07/01 06:02:22;;;;;;;25.42;22.73;;;;;;;;;;5044262;28;20045;-87
2022/07/01 06:04:48;;;;;;;27.13;24.20;;;;;;;;;;5077509;28;20036;-87
2022/07/01 06:07:14;;;;;;;26.92;24.10;;;;;;;;;;5065403;28;20047;-87
2022/07/01 06:09:40;;;;;;;26.90;23.60;;;;;;;;;;5089409;28;20036;-87
2022/07/01 06:12:06;;;;;;;28.27;24.33;;;;;;;;;;5078782;28;20025;-86
2022/07/01 06:14:33;;;;;;;25.92;23.20;;;;;;;;;;5075033;28;20037;-87
2022/07/01 06:16:59;;;;;;;25.33;22.85;;;;;;;;;;5078177;28;20042;-87
2022/07/01 06:19:25;;;;;;;26.55;23.77;;;;;;;;;;5078376;28;20023;-87
2022/07/01 06:21:51;;;;;;;25.45;22.85;;;;;;;;;;5066726;28;20052;-86
2022/07/01 06:24:17;;;;;;;25.75;23.02;;;;;;;;;;5062571;28;20053;-87
2022/07/01 06:26:43;;;;;;;24.15;21.58;;;;;;;;;;5065062;28;20044;-87
2022/07/01 06:29:09;;;;;;;27.23;24.48;;;;;;;;;;5050157;28;20113;-86
2022/07/01 06:31:35;;;;;;;28.10;23.73;;;;;;;;;;5060438;28;20048;-86
2022/07/01 06:34:01;;;;;;;27.52;24.75;;;;;;;;;;5056939;28;20124;-87
2022/07/01 06:36:27;;;;;;;26.20;23.55;;;;;;;;;;5053677;28;20500;-87
2022/07/01 06:38:53;;;;;;;24.58;21.25;;;;;;;;;;5050652;28;20406;-88
2022/07/01 06:41:29;;;;;;;26.15;23.48;;;;;;;;;;5056573;28;20028;-87
2022/07/01 06:43:59;;;;;;;25.38;22.77;;;;;;;;;;5058736;28;20048;-88
2022/07/01 06:46:26;;;;;;;24.95;21.95;;;;;;;;;;5076851;28;20043;-88
2022/07/01 06:48:55;;;;;;;24.83;22.33;;;;;;;;;;5032009;28;20057;-86
2022/07/01 06:51:22;;;;;;;24.40;21.85;;;;;;;;;;5061219;28;20053;-87
2022/07/01 06:53:49;;;;;;;23.08;20.75;;;;;;;;;;5045902;28;20051;-86
2022/07/01 06:56:16;;;;;;;22.50;20.30;;;;;;;;;;5069240;28;20049;-87
2022/07/01 06:58:42;;;;;;;25.77;23.05;;;;;;;;;;5062522;28;20037;-88
2022/07/01 07:01:09;;;;;;;23.67;21.33;;;;;;;;;;5054627;28;20067;-86
2022/07/01 07:03:35;;;;;;;22.33;20.10;;;;;;;;;;5074788;28;20072;-86
2022/07/01 07:06:01;;;;;;;23.73;21.23;;;;;;;;;;5055785;28;20063;-88
2022/07/01 07:08:28;;;;;;;24.23;21.83;;;;;;;;;;5058492;28;20096;-86
2022/07/01 07:10:54;;;;;;;24.98;22.30;;;;;;;;;;5075439;28;20056;-89
2022/07/01 07:13:20;;;;;;;25.55;23.02;;;;;;;;;;5072994;28;20079;-86
2022/07/01 07:15:46;;;;;;;24.30;21.90;;;;;;;;;;5060577;28;20383;-86
2022/07/01 07:18:12;;;;;;;25.35;22.70;;;;;;;;;;5059841;28;20115;-87
2022/07/01 07:20:38;;;;;;;24.33;22.02;;;;;;;;;;5053185;28;20048;-86
2022/07/01 07:23:04;;;;;;;23.60;21.38;;;;;;;;;;5051661;28;20488;-86
2022/07/01 07:25:30;;;;;;;24.92;22.42;;;;;;;;;;5052959;28;20049;-85
2022/07/01 07:27:57;;;;;;;26.75;24.23;;;;;;;;;;5034674;28;20068;-86
2022/07/01 07:30:23;;;;;;;25.08;22.38;;;;;;;;;;5054776;28;20492;-86
2022/07/01 07:32:49;;;;;;;24.88;22.27;;;;;;;;;;5053183;28;20049;-87
2022/07/01 07:35:15;;;;;;;25.10;22.50;;;;;;;;;;5050368;28;20049;-87
2022/07/01 07:37:41;;;;;;;24.75;22.25;;;;;;;;;;5052883;28;20561;-87
2022/07/01 07:40:09;;;;;;;23.65;21.25;;;;;;;;;;5051559;28;20510;-86
2022/07/01 07:42:36;;;;;;;22.10;19.90;;;;;;;;;;5030931;28;20088;-87
2022/07/01 07:45:03;;;;;;;21.98;19.63;;;;;;;;;;5050455;28;20495;-84
2022/07/01 07:47:29;;;;;;;22.58;20.27;;;;;;;;;;5049527;28;20041;-84
2022/07/01 07:49:55;;;;;;;21.67;19.33;;;;;;;;;;5015080;28;20488;-85
2022/07/01 07:52:21;;;;;;;24.70;20.85;;;;;;;;;;5057295;28;20052;-86
2022/07/01 07:54:48;;;;;;;21.15;18.90;;;;;;;;;;5041300;28;20067;-84
2022/07/01 07:57:14;;;;;;;20.70;18.33;;;;;;;;;;5035920;28;20384;-88
2022/07/01 07:59:40;;;;;;;21.10;18.90;;;;;;;;;;5018861;28;20048;-87
2022/07/01 08:02:06;;;;;;;19.52;17.45;;;;;;;;;;5052483;28;20056;-87
2022/07/01 08:04:32;;;;;;;20.50;17.77;;;;;;;;;;5051589;28;20071;-87
2022/07/01 08:06:59;;;;;;;19.08;17.17;;;;;;;;;;5051910;28;20053;-87
2022/07/01 08:09:25;;;;;;;18.77;16.20;;;;;;;;;;5050647;28;20505;-87
2022/07/01 08:11:51;;;;;;;18.92;16.83;;;;;;;;;;5053203;28;20399;-87
2022/07/01 08:14:17;;;;;;;18.70;16.90;;;;;;;;;;5050946;28;20041;-87
2022/07/01 08:16:43;;;;;;;19.83;17.65;;;;;;;;;;5049378;28;20048;-88
2022/07/01 08:19:09;;;;;;;18.35;16.55;;;;;;;;;;5034820;28;20051;-87
2022/07/01 08:21:35;;;;;;;19.40;17.45;;;;;;;;;;5077342;28;20047;-87
2022/07/01 08:24:01;;;;;;;19.90;17.80;;;;;;;;;;5060717;28;20095;-88
2022/07/01 08:26:28;;;;;;;19.75;17.75;;;;;;;;;;5057714;28;20128;-84
2022/07/01 08:28:57;;;;;;;19.33;17.33;;;;;;;;;;5057580;28;20041;-88
2022/07/01 08:31:23;;;;;;;23.02;18.23;;;;;;;;;;5059668;28;20095;-87
2022/07/01 08:33:49;;;;;;;20.13;17.95;;;;;;;;;;5038423;28;20510;-86
2022/07/01 08:36:15;;;;;;;18.92;17.00;;;;;;;;;;5056373;28;20460;-84
2022/07/01 08:38:41;;;;;;;23.27;18.30;;;;;;;;;;5055839;28;20473;-86
2022/07/01 08:41:07;;;;;;;24.17;17.27;;;;;;;;;;5057916;28;20064;-87
2022/07/01 08:43:38;;;;;;;30.40;17.10;;;;;;;;;;5053908;28;20098;-87
2022/07/01 08:46:04;;;;;;;29.13;16.93;;;;;;;;;;5055469;28;20529;-84
2022/07/01 08:48:30;;;;;;;19.02;16.17;;;;;;;;;;5054237;28;20037;-85
2022/07/01 08:50:56;;;;;;;17.08;14.98;;;;;;;;;;5055532;28;20044;-84
2022/07/01 08:53:22;;;;;;;33.88;16.50;;;;;;;;;;5054551;28;20045;-86
2022/07/01 08:58:33;;;;;;;15.30;13.23;;;;;;;;;;5051758;28;20072;-85
2022/07/01 09:01:12;;;;;;;19.77;14.00;;;;;;;;;;5049837;28;20048;-85
2022/07/01 09:03:39;;;;;;;16.23;13.63;;;;;;;;;;5032841;28;20053;-86
2022/07/01 09:06:11;;;;;;;16.58;13.35;;;;;;;;;;5055870;28;20052;-86
2022/07/01 09:08:37;;;;;;;17.83;12.93;;;;;;;;;;5038347;28;20049;-88
2022/07/01 09:11:13;;;;;;;27.75;24.85;;;;;;;;;;5061126;28;20049;-83
2022/07/01 09:13:39;;;;;;;21.98;15.73;;;;;;;;;;5054872;28;20468;-83
2022/07/01 09:16:18;;;;;;;22.92;20.58;;;;;;;;;;5057071;28;20041;-84
2022/07/01 09:19:00;;;;;;;19.75;17.25;;;;;;;;;;5058927;28;20566;-83
2022/07/01 09:21:29;;;;;;;16.08;13.38;;;;;;;;;;5044797;28;20479;-84
2022/07/01 09:23:55;;;;;;;16.88;15.07;;;;;;;;;;5060791;28;20101;-84
2022/07/01 09:26:21;;;;;;;13.38;10.95;;;;;;;;;;5058023;28;20045;-83
2022/07/01 09:28:57;;;;;;;15.80;11.48;;;;;;;;;;5025953;28;20037;-85
2022/07/01 09:31:37;;;;;;;16.77;15.10;;;;;;;;;;5039089;28;20557;-84
2022/07/01 09:34:03;;;;;;;13.07;8.65;;;;;;;;;;5070619;28;20426;-83
2022/07/01 09:36:29;;;;;;;12.95;9.88;;;;;;;;;;5067986;28;20503;-83
2022/07/01 09:38:55;;;;;;;12.02;8.63;;;;;;;;;;5055108;28;20041;-84
2022/07/01 09:41:24;;;;;;;10.70;7.10;;;;;;;;;;5054039;28;20124;-84
2022/07/01 09:43:50;;;;;;;11.60;7.20;;;;;;;;;;5070825;28;20514;-84
2022/07/01 09:46:16;;;;;;;12.23;7.78;;;;;;;;;;5074730;28;20127;-83
2022/07/01 09:48:44;;;;;;;13.68;7.68;;;;;;;;;;5074372;28;20052;-85
2022/07/01 09:51:11;;;;;;;12.48;7.07;;;;;;;;;;5053259;28;20045;-83
2022/07/01 09:53:37;;;;;;;17.50;11.55;;;;;;;;;;5074735;28;20487;-81
2022/07/01 09:56:03;;;;;;;55.92;12.15;;;;;;;;;;5063360;28;20486;-80
2022/07/01 09:58:32;;;;;;;21.80;13.88;;;;;;;;;;5019463;28;20499;-83
2022/07/01 10:00:58;;;;;;;22.63;14.30;;;;;;;;;;5037356;28;20057;-82
2022/07/01 10:03:26;;;;;;;20.55;16.63;;;;;;;;;;5039022;28;20048;-82
2022/07/01 10:05:58;;;;;;;16.77;12.13;;;;;;;;;;5050051;28;20036;-81
2022/07/01 10:08:39;;;;;;;13.25;7.43;;;;;;;;;;5053831;28;20060;-79
2022/07/01 10:11:43;;;;;;;15.07;11.88;;;;;;;;;;5063833;28;20052;-79
2022/07/01 10:14:11;;;;;;;13.73;8.93;;;;;;;;;;4973258;28;20047;-78
2022/07/01 10:16:38;;;;;;;14.98;11.15;;;;;;;;;;4974491;28;20047;-79
2022/07/01 10:19:24;;;;;;;16.52;9.05;;;;;;;;;;4976161;28;20065;-78
2022/07/01 10:21:57;;;;;;;11.95;6.78;;;;;;;;;;4974294;28;20121;-79
2022/07/01 10:24:25;;;;;;;12.50;6.05;;;;;;;;;;4977336;28;20057;-80
2022/07/01 10:26:53;;;;;;;12.20;5.90;;;;;;;;;;4976654;28;20057;-81
2022/07/01 10:29:29;;;;;;;64.00;57.60;;;;;;;;;;4976865;28;20098;-80
2022/07/01 10:32:00;;;;;;;14.10;10.82;;;;;;;;;;4969001;28;20070;-79
2022/07/01 10:34:33;;;;;;;10.65;6.88;;;;;;;;;;4970751;28;20117;-80
2022/07/01 10:37:06;;;;;;;9.73;5.45;;;;;;;;;;4972265;28;20051;-81
2022/07/01 10:39:52;;;;;;;10.98;5.70;;;;;;;;;;4971150;28;20055;-81
2022/07/01 10:42:18;;;;;;;10.73;4.80;;;;;;;;;;4973207;28;20046;-81
2022/07/01 10:45:00;;;;;;;11.30;5.55;;;;;;;;;;5001377;28;20495;-82
2022/07/01 10:47:26;;;;;;;9.70;5.47;;;;;;;;;;5047086;28;20093;-80
2022/07/01 10:49:54;;;;;;;9.73;4.78;;;;;;;;;;5035437;28;20053;-81
2022/07/01 10:52:20;;;;;;;9.35;5.03;;;;;;;;;;5036466;28;20491;-81
2022/07/01 10:54:48;;;;;;;11.55;8.57;;;;;;;;;;5057072;28;20056;-82
2022/07/01 10:57:20;;;;;;;11.18;6.05;;;;;;;;;;5036370;28;20045;-82
2022/07/01 10:59:52;;;;;;;12.38;9.82;;;;;;;;;;5072460;28;20044;-80
2022/07/01 11:02:19;;;;;;;9.82;6.07;;;;;;;;;;5068431;28;20072;-82
2022/07/01 11:04:45;;;;;;;10.23;4.85;;;;;;;;;;5058235;28;20061;-81
2022/07/01 11:07:11;;;;;;;12.13;5.13;;;;;;;;;;5057851;28;20041;-84
2022/07/01 11:09:38;;;;;;;13.05;10.85;;;;;;;;;;5044929;28;20094;-81
2022/07/01 11:12:05;;;;;;;17.08;15.27;;;;;;;;;;5078712;28;20047;-81
2022/07/01 11:14:34;;;;;;;10.05;5.25;;;;;;;;;;5076688;28;20044;-81
2022/07/01 11:17:01;;;;;;;13.88;4.72;;;;;;;;;;5067619;28;20077;-82
2022/07/01 11:19:27;;;;;;;11.75;5.90;;;;;;;;;;5040717;28;20037;-82
2022/07/01 11:21:54;;;;;;;8.52;4.38;;;;;;;;;;5048987;28;20040;-83
2022/07/01 11:24:20;;;;;;;10.48;9.23;;;;;;;;;;5053074;28;20056;-81
2022/07/01 11:26:47;;;;;;;10.07;6.68;;;;;;;;;;5053806;28;20132;-82
2022/07/01 11:29:24;;;;;;;8.07;4.80;;;;;;;;;;5054592;28;20163;-82
2022/07/01 11:31:50;;;;;;;21.70;13.50;;;;;;;;;;5052985;28;20067;-83
2022/07/01 11:34:17;;;;;;;10.38;4.20;;;;;;;;;;5053433;28;20471;-83
2022/07/01 11:39:32;;;;;;;11.05;6.07;;;;;;;;;;5053483;28;20056;-81
2022/07/01 11:42:01;;;;;;;8.00;4.25;;;;;;;;;;5053144;28;20057;-81
2022/07/01 11:44:37;;;;;;;6.88;3.03;;;;;;;;;;5035018;28;20491;-81
2022/07/01 11:47:04;;;;;;;11.00;4.82;;;;;;;;;;5050463;28;20064;-80
2022/07/01 11:49:30;;;;;;;8.10;3.75;;;;;;;;;;5035808;28;20045;-81
2022/07/01 11:52:05;;;;;;;8.02;3.20;;;;;;;;;;5053900;28;20052;-81
2022/07/01 11:54:31;;;;;;;9.20;4.88;;;;;;;;;;5038233;28;20402;-81
2022/07/01 11:57:09;;;;;;;10.45;6.95;;;;;;;;;;5055372;28;20498;-81
2022/07/01 11:59:38;;;;;;;15.70;9.60;;;;;;;;;;5055673;28;20053;-80
2022/07/01 12:02:04;;;;;;;10.02;5.82;;;;;;;;;;5056830;28;20048;-81
2022/07/01 12:04:31;;;;;;;6.75;3.58;;;;;;;;;;5057771;28;20103;-85
2022/07/01 12:06:58;;;;;;;7.47;3.80;;;;;;;;;;5069655;28;20040;-84
2022/07/01 12:09:24;;;;;;;6.85;2.50;;;;;;;;;;5078456;28;20044;-82
2022/07/01 12:11:57;;;;;;;8.75;3.70;;;;;;;;;;5061274;28;20049;-82
2022/07/01 12:14:30;;;;;;;9.52;3.75;;;;;;;;;;5056140;28;20124;-81
2022/07/01 12:17:08;;;;;;;7.88;2.78;;;;;;;;;;5055330;28;20041;-82
2022/07/01 12:19:41;;;;;;;7.30;2.97;;;;;;;;;;5057506;28;20106;-82
2022/07/01 12:22:08;;;;;;;13.57;4.40;;;;;;;;;;5038532;28;20047;-83
2022/07/01 12:24:34;;;;;;;8.20;3.20;;;;;;;;;;5057132;28;20114;-82
2022/07/01 12:27:02;;;;;;;8.82;2.85;;;;;;;;;;5056741;28;20526;-82
2022/07/01 12:29:29;;;;;;;9.07;3.53;;;;;;;;;;5057125;28;20447;-81
2022/07/01 12:31:55;;;;;;;7.68;3.38;;;;;;;;;;5072679;28;20041;-81
2022/07/01 12:34:22;;;;;;;7.70;4.00;;;;;;;;;;5074124;28;20048;-83
2022/07/01 12:36:48;;;;;;;8.10;2.42;;;;;;;;;;5073225;28;20041;-83
2022/07/01 12:39:15;;;;;;;12.55;5.47;;;;;;;;;;5058203;28;20124;-83
2022/07/01 12:41:49;;;;;;;9.70;5.55;;;;;;;;;;5077971;28;20033;-84
2022/07/01 12:44:25;;;;;;;10.25;3.03;;;;;;;;;;5063281;28;20089;-84
2022/07/01 12:46:51;;;;;;;6.43;2.00;;;;;;;;;;5079028;28;20037;-83
2022/07/01 12:49:21;;;;;;;8.60;3.13;;;;;;;;;;5075348;28;20049;-84
2022/07/01 12:51:47;;;;;;;11.25;2.47;;;;;;;;;;5065029;28;20028;-83
2022/07/01 12:54:30;;;;;;;8.20;1.85;;;;;;;;;;5062245;28;20052;-84
2022/07/01 12:56:56;;;;;;;8.80;1.90;;;;;;;;;;5061059;28;20052;-84
2022/07/01 12:59:23;;;;;;;10.63;6.28;;;;;;;;;;5062811;28;20021;-83
2022/07/01 13:01:49;;;;;;;7.28;2.20;;;;;;;;;;5079487;28;20048;-83
2022/07/01 13:04:23;;;;;;;8.02;2.20;;;;;;;;;;5077482;28;20131;-82
2022/07/01 13:06:49;;;;;;;6.55;2.10;;;;;;;;;;5057416;28;20048;-81
2022/07/01 13:09:15;;;;;;;11.23;7.00;;;;;;;;;;5077135;28;20045;-81
2022/07/01 13:11:41;;;;;;;8.25;3.03;;;;;;;;;;5075917;28;20048;-80
2022/07/01 13:14:07;;;;;;;6.25;2.08;;;;;;;;;;5063415;28;20045;-82
2022/07/01 13:16:33;;;;;;;7.88;2.55;;;;;;;;;;5054362;28;20155;-81
2022/07/01 13:18:59;;;;;;;5.65;1.60;;;;;;;;;;5076329;28;20048;-82
2022/07/01 13:21:25;;;;;;;4.85;1.10;;;;;;;;;;5054493;28;20419;-82
2022/07/01 13:23:51;;;;;;;9.15;6.32;;;;;;;;;;5055848;28;20037;-83
2022/07/01 13:26:18;;;;;;;7.20;4.10;;;;;;;;;;5056825;28;20094;-83
2022/07/01 13:28:44;;;;;;;8.82;2.85;;;;;;;;;;5071356;28;20052;-84
2022/07/01 13:31:10;;;;;;;16.15;3.75;;;;;;;;;;5046053;28;20041;-82
2022/07/01 13:33:36;;;;;;;12.27;9.45;;;;;;;;;;5057784;28;20415;-83
2022/07/01 13:36:02;;;;;;;8.02;3.08;;;;;;;;;;5059079;28;20037;-85
2022/07/01 13:38:28;;;;;;;7.57;2.03;;;;;;;;;;5075353;28;20048;-85
2022/07/01 13:40:54;;;;;;;8.63;1.75;;;;;;;;;;5082112;28;20107;-81
2022/07/01 13:43:20;;;;;;;6.15;2.30;;;;;;;;;;5065381;28;20049;-82
2022/07/01 13:45:46;;;;;;;6.55;1.58;;;;;;;;;;5054841;28;20517;-85
2022/07/01 13:48:12;;;;;;;6.72;1.20;;;;;;;;;;5035733;28;20048;-83
2022/07/01 13:50:38;;;;;;;7.25;1.33;;;;;;;;;;5053444;28;20499;-83
2022/07/01 13:53:05;;;;;;;7.38;1.33;;;;;;;;;;5055339;28;20487;-82
2022/07/01 13:55:31;;;;;;;6.80;1.50;;;;;;;;;;5058050;28;20480;-83
2022/07/01 13:57:57;;;;;;;6.88;1.52;;;;;;;;;;5062024;28;20047;-82
2022/07/01 14:00:23;;;;;;;4.90;1.00;;;;;;;;;;5054784;28;20049;-82
2022/07/01 14:02:49;;;;;;;7.20;1.38;;;;;;;;;;5038161;28;20049;-82
2022/07/01 14:05:16;;;;;;;5.55;1.33;;;;;;;;;;5055640;28;20068;-83
2022/07/01 14:07:42;;;;;;;5.95;1.05;;;;;;;;;;5062666;28;20041;-84
2022/07/01 14:10:08;;;;;;;5.78;1.25;;;;;;;;;;5057331;28;20076;-84
2022/07/01 14:12:34;;;;;;;6.28;1.13;;;;;;;;;;5040346;28;20402;-84
2022/07/01 14:15:01;;;;;;;6.30;1.33;;;;;;;;;;5058664;28;20398;-83
2022/07/01 14:17:27;;;;;;;6.03;1.27;;;;;;;;;;5073596;28;20502;-84
2022/07/01 14:19:58;;;;;;;9.23;1.40;;;;;;;;;;5043866;28;20049;-83
2022/07/01 14:22:25;;;;;;;6.63;1.30;;;;;;;;;;5044925;28;20052;-81
2022/07/01 14:24:51;;;;;;;6.20;1.25;;;;;;;;;;5034137;28;20048;-82
2022/07/01 14:27:17;;;;;;;4.20;1.27;;;;;;;;;;5055281;28;20049;-82
2022/07/01 14:29:43;;;;;;;6.20;1.30;;;;;;;;;;5053974;28;20037;-82
2022/07/01 14:32:09;;;;;;;5.75;1.20;;;;;;;;;;5055628;28;20507;-83
2022/07/01 14:34:35;;;;;;;5.47;1.10;;;;;;;;;;5054925;28;20477;-84
2022/07/01 14:37:01;;;;;;;7.00;1.20;;;;;;;;;;5055944;28;20041;-81
2022/07/01 14:39:27;;;;;;;12.77;1.77;;;;;;;;;;5054904;28;20072;-83
2022/07/01 14:41:54;;;;;;;11.07;5.10;;;;;;;;;;5055755;28;20048;-82
2022/07/01 14:44:20;;;;;;;6.85;1.30;;;;;;;;;;5053027;28;20044;-82
2022/07/01 14:46:46;;;;;;;7.72;1.58;;;;;;;;;;5052687;28;20052;-83
2022/07/01 14:49:14;;;;;;;7.20;1.20;;;;;;;;;;5055314;28;20044;-83
2022/07/01 14:51:40;;;;;;;4.85;1.27;;;;;;;;;;5033814;28;20548;-83